Time;durP1;ratioP1;P1;durP2;ratioP2;P2;SDS_P1;SDS_P2;PMS_P1;PMS_P2;Temp;Humidity;BMP_temperature;BMP_pressure;BME280_temperature;BME280_humidity;BME280_pressure;Samples;Min_cycle;Max_cycle;Signal;HPM_P1;HPM_P2
2022/12/05 00:01:24;;;;;;;21.80;12.73;;;4.70;99.90;;;;;;5058993;28;20441;-78
2022/12/05 00:03:51;;;;;;;25.00;11.70;;;4.70;99.90;;;;;;5058822;28;20750;-78
2022/12/05 00:06:18;;;;;;;19.80;11.20;;;4.60;99.90;;;;;;5058779;28;20417;-78
2022/12/05 00:08:43;;;;;;;28.17;11.90;;;4.60;99.90;;;;;;5059114;28;20405;-78
2022/12/05 00:11:14;;;;;;;23.87;12.50;;;4.60;99.90;;;;;;5059062;28;20506;-78
2022/12/05 00:13:41;;;;;;;18.30;10.47;;;4.60;99.90;;;;;;5059555;28;20425;-78
2022/12/05 00:16:12;;;;;;;23.40;11.73;;;4.60;99.90;;;;;;5058363;28;20444;-78
2022/12/05 00:18:38;;;;;;;17.70;10.47;;;4.50;99.90;;;;;;5059073;28;20409;-78
2022/12/05 00:21:04;;;;;;;19.10;12.13;;;4.60;99.90;;;;;;5059553;28;20405;-77
2022/12/05 00:23:30;;;;;;;16.87;9.80;;;4.60;99.90;;;;;;5059672;28;20179;-78
2022/12/05 00:25:55;;;;;;;24.20;12.40;;;4.60;99.90;;;;;;5058201;28;20433;-77
2022/12/05 00:28:21;;;;;;;21.00;10.70;;;4.60;99.90;;;;;;5058502;28;20722;-78
2022/12/05 00:30:47;;;;;;;17.27;10.17;;;4.60;99.90;;;;;;5059649;28;20193;-78
2022/12/05 00:33:12;;;;;;;22.07;11.27;;;4.70;99.90;;;;;;5059111;28;20408;-78
2022/12/05 00:35:38;;;;;;;18.67;10.10;;;4.60;99.90;;;;;;5057884;28;20679;-78
2022/12/05 00:38:03;;;;;;;26.57;11.17;;;4.60;99.90;;;;;;5058382;28;20175;-78
2022/12/05 00:40:29;;;;;;;20.00;10.20;;;4.60;99.90;;;;;;5058932;28;20175;-78
2022/12/05 00:42:54;;;;;;;19.10;11.57;;;4.60;99.90;;;;;;5059017;28;20193;-78
2022/12/05 00:45:20;;;;;;;19.90;11.10;;;4.70;99.90;;;;;;5057852;28;20171;-78
2022/12/05 00:47:45;;;;;;;17.87;11.30;;;4.70;99.90;;;;;;5058721;28;20181;-78
2022/12/05 00:50:11;;;;;;;19.63;10.83;;;4.70;99.90;;;;;;5058961;28;20186;-78
2022/12/05 00:52:36;;;;;;;22.83;11.17;;;4.70;99.90;;;;;;5058850;28;20201;-78
2022/12/05 00:55:02;;;;;;;21.50;10.87;;;4.70;99.90;;;;;;5058869;28;20230;-78
2022/12/05 00:57:28;;;;;;;19.80;10.43;;;4.60;99.90;;;;;;5060170;28;20194;-78
2022/12/05 00:59:53;;;;;;;21.50;11.70;;;4.60;99.90;;;;;;5058786;28;20239;-78
2022/12/05 01:02:19;;;;;;;22.13;11.63;;;4.60;99.90;;;;;;5059334;28;20268;-78
2022/12/05 01:04:44;;;;;;;18.47;10.10;;;4.60;99.90;;;;;;5058158;28;20570;-78
2022/12/05 01:07:10;;;;;;;19.20;10.40;;;4.60;99.90;;;;;;5060168;28;20175;-78
2022/12/05 01:09:35;;;;;;;21.77;9.90;;;4.60;99.90;;;;;;5058166;28;20175;-78
2022/12/05 01:12:01;;;;;;;19.90;9.87;;;4.60;99.90;;;;;;5057880;28;20265;-78
2022/12/05 01:14:26;;;;;;;16.07;9.53;;;4.60;99.90;;;;;;5057281;28;20210;-78
2022/12/05 01:16:54;;;;;;;24.77;11.70;;;4.60;99.90;;;;;;5057913;28;20198;-78
2022/12/05 01:19:26;;;;;;;18.13;9.50;;;4.60;99.90;;;;;;5059481;28;20174;-78
2022/12/05 01:21:52;;;;;;;19.40;9.07;;;4.60;99.90;;;;;;5057717;28;20930;-78
2022/12/05 01:24:19;;;;;;;17.47;9.97;;;4.60;99.90;;;;;;5058958;28;20433;-78
2022/12/05 01:26:45;;;;;;;20.23;11.00;;;4.70;99.90;;;;;;5057998;28;20440;-78
2022/12/05 01:29:12;;;;;;;16.10;10.50;;;4.70;99.90;;;;;;5059176;28;20413;-78
2022/12/05 01:31:38;;;;;;;17.23;9.63;;;4.70;99.90;;;;;;5056989;28;20455;-78
2022/12/05 01:34:08;;;;;;;20.80;10.53;;;4.70;99.90;;;;;;5058217;28;20453;-78
2022/12/05 01:36:34;;;;;;;15.80;8.57;;;4.70;99.90;;;;;;5058817;28;20743;-78
2022/12/05 01:39:00;;;;;;;23.83;11.27;;;4.70;99.90;;;;;;5059316;28;20416;-78
2022/12/05 01:41:28;;;;;;;20.30;11.00;;;4.70;99.90;;;;;;5058169;28;20178;-78
2022/12/05 01:44:11;;;;;;;14.90;9.67;;;4.70;99.90;;;;;;5057170;28;20198;-78
2022/12/05 01:46:57;;;;;;;18.27;10.50;;;4.70;99.90;;;;;;5058194;28;20946;-78
2022/12/05 01:49:32;;;;;;;17.63;9.43;;;4.70;99.90;;;;;;5058494;28;20417;-78
2022/12/05 01:52:02;;;;;;;20.10;9.77;;;4.80;99.90;;;;;;5058799;28;20396;-78
2022/12/05 01:54:28;;;;;;;23.10;10.93;;;4.80;99.90;;;;;;5058389;28;20457;-78
2022/12/05 01:57:01;;;;;;;20.83;11.33;;;4.80;99.90;;;;;;5057751;28;20459;-78
2022/12/05 01:59:30;;;;;;;17.70;10.27;;;4.80;99.90;;;;;;5057642;28;21004;-78
2022/12/05 02:01:56;;;;;;;22.70;11.40;;;4.80;99.90;;;;;;5057358;28;20959;-78
2022/12/05 02:04:22;;;;;;;21.83;9.90;;;4.80;99.90;;;;;;5056760;28;20563;-78
2022/12/05 02:06:48;;;;;;;16.93;9.47;;;4.80;99.90;;;;;;5058203;28;20178;-78
2022/12/05 02:09:13;;;;;;;17.27;9.17;;;4.80;99.90;;;;;;5057556;28;20178;-78
2022/12/05 02:11:56;;;;;;;19.20;9.60;;;4.80;99.90;;;;;;5057996;28;20171;-78
2022/12/05 02:14:55;;;;;;;19.77;9.27;;;4.80;99.90;;;;;;5057016;28;20549;-78
2022/12/05 02:17:46;;;;;;;17.37;8.57;;;4.90;99.90;;;;;;5057040;28;20773;-78
2022/12/05 02:20:59;;;;;;;18.83;9.10;;;4.80;99.90;;;;;;5058039;28;20409;-78
2022/12/05 02:23:43;;;;;;;16.23;9.50;;;4.80;99.90;;;;;;5057327;28;20448;-78
2022/12/05 02:26:39;;;;;;;18.40;10.30;;;4.80;99.90;;;;;;5058341;28;20393;-78
2022/12/05 02:29:25;;;;;;;16.70;8.33;;;4.70;99.90;;;;;;5057600;28;20417;-78
2022/12/05 02:32:17;;;;;;;17.47;8.60;;;4.80;99.90;;;;;;5058935;28;21022;-78
2022/12/05 02:34:56;;;;;;;25.57;9.87;;;4.80;99.90;;;;;;5059203;28;20470;-78
2022/12/05 02:37:28;;;;;;;21.53;11.23;;;4.80;99.90;;;;;;5062964;28;20389;-78
2022/12/05 02:40:20;;;;;;;14.93;8.83;;;4.80;99.90;;;;;;5062349;28;20500;-78
2022/12/05 02:42:57;;;;;;;18.77;10.70;;;4.80;99.90;;;;;;5060125;28;20427;-78
2022/12/05 02:45:26;;;;;;;16.23;10.20;;;4.90;99.90;;;;;;5063103;28;20407;-78
2022/12/05 02:47:53;;;;;;;16.43;9.03;;;4.80;99.90;;;;;;5063066;28;20394;-78
2022/12/05 02:50:23;;;;;;;16.30;8.93;;;4.90;99.90;;;;;;5061887;28;20440;-78
2022/12/05 02:52:51;;;;;;;18.57;10.90;;;4.80;99.90;;;;;;5061685;28;20436;-78
2022/12/05 02:55:18;;;;;;;20.57;10.93;;;4.80;99.90;;;;;;5061937;28;20881;-78
2022/12/05 02:57:49;;;;;;;15.73;9.20;;;4.90;99.90;;;;;;5062439;28;20417;-78
2022/12/05 03:00:15;;;;;;;23.37;11.07;;;4.90;99.90;;;;;;5062302;28;20492;-79
2022/12/05 03:02:41;;;;;;;22.07;10.20;;;4.90;99.90;;;;;;5061212;28;20449;-78
2022/12/05 03:05:29;;;;;;;19.17;11.70;;;4.90;99.90;;;;;;5063114;28;20402;-78
2022/12/05 03:07:58;;;;;;;18.63;10.30;;;4.80;99.90;;;;;;5062108;28;20419;-78
2022/12/05 03:10:27;;;;;;;19.37;10.70;;;4.70;99.90;;;;;;5061631;28;20498;-78
2022/12/05 03:12:59;;;;;;;19.27;10.77;;;4.70;99.90;;;;;;5062240;28;20436;-78
2022/12/05 03:15:34;;;;;;;18.00;9.80;;;4.70;99.90;;;;;;5061024;28;21047;-78
2022/12/05 03:18:09;;;;;;;14.70;8.97;;;4.70;99.90;;;;;;5061596;28;20471;-78
2022/12/05 03:21:07;;;;;;;16.60;8.97;;;4.60;99.90;;;;;;5061332;28;20416;-78
2022/12/05 03:23:48;;;;;;;15.17;9.27;;;4.50;99.90;;;;;;5061992;28;20520;-78
2022/12/05 03:26:33;;;;;;;16.33;8.40;;;4.40;99.90;;;;;;5060894;28;20628;-78
2022/12/05 03:29:40;;;;;;;19.83;8.73;;;4.30;99.90;;;;;;5061453;28;20451;-78
2022/12/05 03:32:23;;;;;;;14.37;8.43;;;4.30;99.90;;;;;;5060701;28;20432;-78
2022/12/05 03:35:03;;;;;;;20.20;9.87;;;4.20;99.90;;;;;;5059850;28;20448;-78
2022/12/05 03:38:00;;;;;;;19.87;9.23;;;4.30;99.90;;;;;;5060363;28;20499;-78
2022/12/05 03:40:30;;;;;;;18.30;8.83;;;4.30;99.90;;;;;;5060547;28;20420;-78
2022/12/05 03:43:11;;;;;;;16.57;9.63;;;4.30;99.90;;;;;;5060227;28;20444;-78
2022/12/05 03:45:58;;;;;;;15.77;9.47;;;4.20;99.90;;;;;;5060216;28;20418;-78
2022/12/05 03:48:42;;;;;;;15.33;8.90;;;4.20;99.90;;;;;;5059794;28;20976;-78
2022/12/05 03:51:11;;;;;;;15.80;9.80;;;4.20;99.90;;;;;;5060879;28;20405;-78
2022/12/05 03:53:45;;;;;;;15.90;9.57;;;4.20;99.90;;;;;;5060816;28;20504;-78
2022/12/05 03:56:16;;;;;;;10.93;7.90;;;4.20;99.90;;;;;;5059510;28;20463;-78
2022/12/05 03:59:05;;;;;;;16.73;9.43;;;4.10;99.90;;;;;;5059097;28;20838;-78
2022/12/05 04:01:34;;;;;;;18.57;9.73;;;4.10;99.90;;;;;;5058206;28;20420;-78
2022/12/05 04:04:07;;;;;;;15.13;7.63;;;4.10;99.90;;;;;;5058000;28;20505;-78
2022/12/05 04:06:36;;;;;;;20.23;10.40;;;4.00;99.90;;;;;;5058639;28;20417;-78
2022/12/05 04:09:12;;;;;;;15.40;10.30;;;4.10;99.90;;;;;;5059626;28;20423;-78
2022/12/05 04:11:44;;;;;;;15.63;8.23;;;4.10;99.90;;;;;;5058532;28;20405;-78
2022/12/05 04:14:27;;;;;;;15.40;9.10;;;4.10;99.90;;;;;;5058863;28;20457;-78
2022/12/05 04:17:04;;;;;;;20.20;10.50;;;4.00;99.90;;;;;;5059703;28;20489;-78
2022/12/05 04:22:26;;;;;;;21.43;10.33;;;4.10;99.90;;;;;;5060437;28;20825;-78
2022/12/05 04:27:42;;;;;;;16.27;8.50;;;4.20;99.90;;;;;;5060846;28;20400;-78
2022/12/05 04:30:16;;;;;;;12.13;7.60;;;4.20;99.90;;;;;;5060068;28;20484;-78
2022/12/05 04:32:51;;;;;;;12.20;7.57;;;4.10;99.90;;;;;;5059726;28;20952;-79
2022/12/05 04:35:26;;;;;;;20.33;10.63;;;4.10;99.90;;;;;;5058355;28;20456;-78
2022/12/05 04:37:57;;;;;;;13.67;9.20;;;4.10;99.90;;;;;;5058668;28;20437;-78
2022/12/05 04:40:30;;;;;;;17.83;9.07;;;4.10;99.90;;;;;;5059886;28;20406;-77
2022/12/05 04:42:58;;;;;;;14.67;9.17;;;3.90;99.90;;;;;;5057915;28;20498;-78
2022/12/05 04:45:25;;;;;;;16.00;9.67;;;3.90;99.90;;;;;;5059214;28;20767;-78
2022/12/05 04:47:58;;;;;;;12.60;8.20;;;3.90;99.90;;;;;;5059098;28;20401;-78
2022/12/05 04:50:25;;;;;;;14.27;9.47;;;3.90;99.90;;;;;;5058272;28;20939;-78
2022/12/05 04:52:53;;;;;;;18.00;10.90;;;3.70;99.90;;;;;;5057646;28;20981;-78
2022/12/05 04:55:24;;;;;;;17.60;9.47;;;3.70;99.90;;;;;;5057868;28;20483;-77
2022/12/05 04:57:59;;;;;;;14.33;9.70;;;3.70;99.90;;;;;;5059580;28;20398;-78
2022/12/05 05:00:27;;;;;;;13.87;7.97;;;3.80;99.90;;;;;;5058817;28;20405;-78
2022/12/05 05:03:10;;;;;;;19.70;9.00;;;3.80;99.90;;;;;;5058167;28;20447;-77
2022/12/05 05:05:37;;;;;;;15.43;9.17;;;3.80;99.90;;;;;;5057502;28;20420;-78
2022/12/05 05:08:03;;;;;;;20.20;10.20;;;3.90;99.90;;;;;;5057518;28;20417;-78
2022/12/05 05:10:40;;;;;;;14.63;8.40;;;3.90;99.90;;;;;;5057929;28;20405;-79
2022/12/05 05:13:06;;;;;;;16.57;10.27;;;3.90;99.90;;;;;;5058317;28;20190;-78
2022/12/05 05:15:31;;;;;;;15.90;8.00;;;3.90;99.90;;;;;;5057262;28;20453;-78
2022/12/05 05:17:57;;;;;;;16.70;9.10;;;3.90;99.90;;;;;;5057280;28;20258;-78
2022/12/05 05:20:22;;;;;;;17.17;8.53;;;3.90;99.90;;;;;;5057270;28;20166;-78
2022/12/05 05:22:56;;;;;;;14.10;8.63;;;3.90;99.90;;;;;;5057815;28;20187;-77
2022/12/05 05:25:22;;;;;;;18.13;10.60;;;3.90;99.90;;;;;;5057685;28;20634;-78
2022/12/05 05:27:52;;;;;;;21.20;10.90;;;3.80;99.90;;;;;;5056982;28;20424;-78
2022/12/05 05:30:18;;;;;;;19.40;10.23;;;3.80;99.90;;;;;;5057006;28;20433;-78
2022/12/05 05:32:44;;;;;;;13.43;9.53;;;3.90;99.90;;;;;;5053663;28;20430;-77
2022/12/05 05:35:11;;;;;;;16.87;9.10;;;3.90;99.90;;;;;;5051305;28;20457;-78
2022/12/05 05:37:37;;;;;;;13.93;9.33;;;3.90;99.90;;;;;;5057637;28;20520;-78
2022/12/05 05:40:05;;;;;;;23.33;11.20;;;3.90;99.90;;;;;;5057255;28;20436;-77
2022/12/05 05:42:31;;;;;;;21.40;11.20;;;3.70;99.90;;;;;;5052269;28;20437;-77
2022/12/05 05:44:56;;;;;;;18.67;9.60;;;3.80;99.90;;;;;;5051376;28;20420;-78
2022/12/05 05:47:21;;;;;;;18.53;9.60;;;3.80;99.90;;;;;;5053997;28;20621;-77
2022/12/05 05:49:47;;;;;;;16.23;9.90;;;3.90;99.90;;;;;;5054117;28;20175;-77
2022/12/05 05:52:13;;;;;;;16.83;8.37;;;3.90;99.90;;;;;;5050778;28;20202;-76
2022/12/05 05:54:38;;;;;;;15.90;9.07;;;3.90;99.90;;;;;;5053014;28;20669;-78
2022/12/05 05:57:04;;;;;;;16.90;9.30;;;3.90;99.90;;;;;;5053988;28;20163;-77
2022/12/05 05:59:29;;;;;;;15.37;9.53;;;3.90;99.90;;;;;;5052199;28;20167;-76
2022/12/05 06:01:55;;;;;;;16.20;9.17;;;3.90;99.90;;;;;;5052325;28;20235;-76
2022/12/05 06:04:20;;;;;;;17.90;9.50;;;3.90;99.90;;;;;;5051580;28;20200;-76
2022/12/05 06:06:46;;;;;;;9.87;8.33;;;3.90;99.90;;;;;;5052261;28;20171;-77
2022/12/05 06:09:11;;;;;;;13.17;9.07;;;4.00;99.90;;;;;;5050058;28;20178;-76
2022/12/05 06:11:37;;;;;;;15.73;8.93;;;4.00;99.90;;;;;;5053075;28;20258;-77
2022/12/05 06:14:03;;;;;;;17.40;9.07;;;3.90;99.90;;;;;;5053707;28;20193;-77
2022/12/05 06:16:30;;;;;;;15.07;9.27;;;3.90;99.90;;;;;;5053511;28;20409;-78
2022/12/05 06:18:56;;;;;;;16.90;9.60;;;3.90;99.90;;;;;;5054135;28;20170;-77
2022/12/05 06:21:22;;;;;;;22.13;10.97;;;4.00;99.90;;;;;;5055502;28;20469;-76
2022/12/05 06:23:47;;;;;;;13.47;8.90;;;3.90;99.90;;;;;;5054156;28;20194;-77
2022/12/05 06:26:16;;;;;;;17.63;9.63;;;3.90;99.90;;;;;;5052452;28;20405;-77
2022/12/05 06:28:43;;;;;;;16.60;9.37;;;3.90;99.90;;;;;;5053274;28;20159;-78
2022/12/05 06:31:11;;;;;;;16.20;10.37;;;3.80;99.90;;;;;;5050938;28;20556;-78
2022/12/05 06:33:37;;;;;;;21.70;11.50;;;3.80;99.90;;;;;;5052755;28;20421;-76
2022/12/05 06:36:06;;;;;;;13.70;9.43;;;3.90;99.90;;;;;;5050618;28;20559;-78
2022/12/05 06:38:32;;;;;;;15.30;9.27;;;3.90;99.90;;;;;;5053835;28;20495;-78
2022/12/05 06:40:58;;;;;;;11.00;8.00;;;3.90;99.90;;;;;;5054195;28;20420;-77
2022/12/05 06:43:23;;;;;;;13.50;9.10;;;3.70;99.90;;;;;;5053362;28;20910;-78
2022/12/05 06:45:49;;;;;;;16.70;9.17;;;3.70;99.90;;;;;;5054579;28;20672;-78
2022/12/05 06:48:15;;;;;;;21.90;9.83;;;3.70;99.90;;;;;;5051522;28;20167;-77
2022/12/05 06:50:48;;;;;;;18.07;10.70;;;3.70;99.90;;;;;;5050218;28;20254;-77
2022/12/05 06:53:13;;;;;;;12.27;8.27;;;3.70;99.90;;;;;;5051443;28;20278;-77
2022/12/05 06:55:39;;;;;;;16.33;9.90;;;3.70;99.90;;;;;;5051141;28;20540;-77
2022/12/05 06:58:04;;;;;;;17.10;8.63;;;3.70;99.90;;;;;;5053633;28;20191;-79
2022/12/05 07:03:14;;;;;;;15.80;8.67;;;3.80;99.90;;;;;;5056290;28;20194;-79
2022/12/05 07:05:39;;;;;;;15.53;9.07;;;3.80;99.90;;;;;;5056272;28;20906;-79
2022/12/05 07:08:05;;;;;;;16.27;9.10;;;3.80;99.90;;;;;;5052274;28;20179;-77
2022/12/05 07:10:30;;;;;;;20.80;10.67;;;3.80;99.90;;;;;;5051392;28;20206;-77
2022/12/05 07:12:56;;;;;;;14.90;8.97;;;3.80;99.90;;;;;;5051215;28;20328;-77
2022/12/05 07:15:21;;;;;;;16.77;10.63;;;3.70;99.90;;;;;;5051220;28;20195;-77
2022/12/05 07:17:47;;;;;;;17.33;10.20;;;3.70;99.90;;;;;;5054452;28;20175;-78
2022/12/05 07:20:16;;;;;;;21.20;10.17;;;3.70;99.90;;;;;;5054111;28;20198;-78
2022/12/05 07:22:42;;;;;;;19.93;9.97;;;3.70;99.90;;;;;;5055552;28;20563;-78
2022/12/05 07:25:08;;;;;;;18.87;10.80;;;3.70;99.90;;;;;;5055033;28;20479;-78
2022/12/05 07:27:33;;;;;;;18.03;9.70;;;3.80;99.90;;;;;;5055415;28;20425;-79
2022/12/05 07:29:59;;;;;;;15.40;9.43;;;3.80;99.90;;;;;;5055079;28;20179;-78
2022/12/05 07:32:25;;;;;;;17.13;10.00;;;3.80;99.90;;;;;;5056333;28;20670;-78
2022/12/05 07:34:50;;;;;;;13.57;9.20;;;3.90;99.90;;;;;;5054482;28;20248;-78
2022/12/05 07:37:16;;;;;;;20.20;11.17;;;3.90;99.90;;;;;;5056000;28;20173;-78
2022/12/05 07:39:41;;;;;;;15.23;9.97;;;3.90;99.90;;;;;;5055152;28;20167;-77
2022/12/05 07:42:07;;;;;;;22.00;10.77;;;3.90;99.90;;;;;;5054484;28;20555;-76
2022/12/05 07:44:33;;;;;;;21.10;11.00;;;3.90;99.90;;;;;;5054198;28;20224;-77
2022/12/05 07:46:59;;;;;;;12.20;8.50;;;3.80;99.90;;;;;;5054364;28;20624;-77
2022/12/05 07:49:24;;;;;;;18.00;9.57;;;3.90;99.90;;;;;;5054779;28;20413;-77
2022/12/05 07:51:50;;;;;;;17.10;9.43;;;3.90;99.90;;;;;;5056568;28;20209;-78
2022/12/05 07:54:16;;;;;;;12.73;8.90;;;4.00;99.90;;;;;;5057789;28;20209;-78
2022/12/05 07:56:41;;;;;;;12.13;7.97;;;4.00;99.90;;;;;;5054618;28;20212;-78
2022/12/05 07:59:07;;;;;;;17.57;9.70;;;4.00;99.90;;;;;;5056167;28;20187;-79
2022/12/05 08:01:32;;;;;;;15.60;9.67;;;3.90;99.90;;;;;;5055538;28;20171;-77
2022/12/05 08:03:58;;;;;;;15.50;9.10;;;4.00;99.90;;;;;;5053863;28;20209;-77
2022/12/05 08:06:26;;;;;;;14.33;11.03;;;4.00;99.90;;;;;;5052468;28;20538;-77
2022/12/05 08:08:52;;;;;;;14.83;8.00;;;4.10;99.90;;;;;;5053947;28;20445;-77
2022/12/05 08:11:23;;;;;;;11.83;8.33;;;4.10;99.90;;;;;;5053884;28;20433;-77
2022/12/05 08:13:49;;;;;;;16.40;9.00;;;4.00;99.90;;;;;;5054143;28;20428;-77
2022/12/05 08:16:18;;;;;;;11.97;7.73;;;4.10;99.90;;;;;;5053548;28;20410;-77
2022/12/05 08:18:44;;;;;;;12.13;7.60;;;4.20;99.90;;;;;;5053687;28;20767;-77
2022/12/05 08:21:16;;;;;;;15.17;10.17;;;4.30;99.90;;;;;;5052415;28;20410;-77
2022/12/05 08:23:42;;;;;;;11.87;9.17;;;4.30;99.90;;;;;;5053665;28;20208;-77
2022/12/05 08:26:12;;;;;;;14.53;8.50;;;4.40;99.90;;;;;;5053313;28;20764;-77
2022/12/05 08:28:38;;;;;;;14.50;8.20;;;4.50;99.90;;;;;;5053519;28;20421;-77
2022/12/05 08:31:12;;;;;;;13.83;7.50;;;4.60;99.90;;;;;;5055407;28;20842;-79
2022/12/05 08:33:38;;;;;;;12.10;8.40;;;4.60;99.90;;;;;;5055339;28;20481;-79
2022/12/05 08:36:06;;;;;;;12.30;7.73;;;4.70;99.90;;;;;;5056452;28;20465;-78
2022/12/05 08:38:31;;;;;;;16.67;9.77;;;4.80;99.90;;;;;;5058166;28;20175;-79
2022/12/05 08:41:01;;;;;;;12.83;9.40;;;4.80;99.90;;;;;;5057664;28;20438;-79
2022/12/05 08:43:27;;;;;;;12.23;7.27;;;4.90;99.90;;;;;;5055667;28;20207;-79
2022/12/05 08:45:53;;;;;;;19.60;11.17;;;4.90;99.90;;;;;;5054803;28;20408;-78
2022/12/05 08:48:19;;;;;;;12.60;8.37;;;5.00;99.90;;;;;;5052618;28;20500;-77
2022/12/05 08:50:45;;;;;;;13.20;9.00;;;4.90;99.90;;;;;;5053181;28;20225;-77
2022/12/05 08:53:10;;;;;;;19.60;12.47;;;4.80;99.90;;;;;;5056230;28;20433;-78
2022/12/05 08:55:36;;;;;;;19.70;14.70;;;4.90;99.90;;;;;;5056298;28;20194;-77
2022/12/05 08:58:02;;;;;;;32.13;19.00;;;4.80;99.90;;;;;;5056817;28;20182;-78
2022/12/05 09:00:28;;;;;;;27.33;17.90;;;4.90;99.90;;;;;;5056744;28;20171;-78
2022/12/05 09:02:53;;;;;;;23.40;15.63;;;4.90;99.90;;;;;;5056530;28;20195;-78
2022/12/05 09:05:19;;;;;;;18.47;15.00;;;4.80;99.90;;;;;;5054385;28;20175;-77
2022/12/05 09:07:44;;;;;;;18.80;10.10;;;4.70;99.90;;;;;;5052803;28;20223;-77
2022/12/05 09:10:10;;;;;;;10.70;8.20;;;4.70;99.90;;;;;;5053425;28;20183;-78
2022/12/05 09:12:36;;;;;;;14.00;8.20;;;4.70;99.90;;;;;;5054678;28;20202;-79
2022/12/05 09:15:02;;;;;;;13.77;8.67;;;4.80;99.90;;;;;;5056251;28;20457;-79
2022/12/05 09:17:28;;;;;;;13.13;8.17;;;4.80;99.90;;;;;;5057758;28;20415;-79
2022/12/05 09:19:53;;;;;;;12.60;8.33;;;4.80;99.90;;;;;;5055942;28;20840;-79
2022/12/05 09:22:19;;;;;;;12.43;8.33;;;4.90;99.90;;;;;;5053251;28;20257;-79
2022/12/05 09:24:44;;;;;;;11.87;7.70;;;4.80;99.90;;;;;;5053765;28;20173;-78
2022/12/05 09:27:10;;;;;;;12.83;9.00;;;4.80;99.90;;;;;;5053964;28;20253;-79
2022/12/05 09:29:36;;;;;;;12.40;8.23;;;4.90;99.90;;;;;;5052521;28;20612;-79
2022/12/05 09:32:01;;;;;;;14.97;10.13;;;5.00;99.90;;;;;;5052902;28;20191;-78
2022/12/05 09:34:28;;;;;;;16.80;8.60;;;5.00;99.90;;;;;;5053230;28;20567;-78
2022/12/05 09:36:53;;;;;;;13.90;8.60;;;5.10;99.90;;;;;;5057021;28;20173;-78
2022/12/05 09:39:19;;;;;;;14.77;9.30;;;5.20;99.90;;;;;;5056120;28;20413;-79
2022/12/05 09:42:22;;;;;;;17.80;11.63;;;5.30;99.90;;;;;;5055873;28;20171;-79
2022/12/05 09:45:14;;;;;;;14.53;9.73;;;5.20;99.90;;;;;;5056013;28;20196;-79
2022/12/05 09:47:56;;;;;;;15.47;10.80;;;5.30;99.90;;;;;;5057987;28;20712;-79
2022/12/05 09:50:42;;;;;;;16.17;9.70;;;5.30;99.90;;;;;;5056180;28;20428;-79
2022/12/05 09:53:08;;;;;;;15.00;9.00;;;5.40;99.90;;;;;;5055469;28;20437;-78
2022/12/05 09:55:46;;;;;;;15.47;9.77;;;5.30;99.90;;;;;;5055334;28;20457;-78
2022/12/05 09:58:45;;;;;;;14.70;11.00;;;5.40;99.90;;;;;;5055369;28;20762;-78
2022/12/05 10:01:29;;;;;;;13.30;8.90;;;5.40;99.90;;;;;;5053427;28;20796;-79
2022/12/05 10:04:05;;;;;;;15.17;9.10;;;5.30;99.90;;;;;;5052985;28;20432;-77
2022/12/05 10:07:00;;;;;;;12.37;8.57;;;5.40;99.90;;;;;;5051747;28;20412;-77
2022/12/05 10:09:32;;;;;;;12.20;9.13;;;5.30;99.90;;;;;;5052490;28;20425;-79
2022/12/05 10:12:09;;;;;;;15.97;9.13;;;5.20;99.90;;;;;;5052436;28;20416;-78
2022/12/05 10:14:44;;;;;;;12.90;9.30;;;5.30;99.90;;;;;;5053265;28;20462;-79
2022/12/05 10:17:21;;;;;;;14.43;8.77;;;5.20;99.90;;;;;;5052714;28;20397;-77
2022/12/05 10:19:50;;;;;;;14.13;8.73;;;5.20;99.90;;;;;;5051751;28;20405;-77
2022/12/05 10:22:24;;;;;;;12.17;9.27;;;5.40;99.90;;;;;;5051810;28;20770;-77
2022/12/05 10:24:55;;;;;;;15.27;8.47;;;5.50;99.90;;;;;;5050258;28;20775;-77
2022/12/05 10:27:31;;;;;;;10.57;7.80;;;5.60;99.90;;;;;;5051682;28;20547;-77
2022/12/05 10:30:01;;;;;;;13.27;7.97;;;5.50;99.90;;;;;;5051647;28;20421;-77
2022/12/05 10:32:43;;;;;;;9.23;7.13;;;5.60;99.90;;;;;;5051529;28;20429;-78
2022/12/05 10:35:21;;;;;;;11.00;7.20;;;5.50;99.90;;;;;;5053114;28;20453;-78
2022/12/05 10:37:50;;;;;;;10.00;6.50;;;5.50;99.90;;;;;;5054016;28;20496;-79
2022/12/05 10:40:16;;;;;;;7.97;5.50;;;5.50;99.90;;;;;;5052276;28;20432;-79
2022/12/05 10:42:43;;;;;;;7.87;6.00;;;5.50;99.90;;;;;;5052592;28;20786;-79
2022/12/05 10:45:18;;;;;;;10.00;7.03;;;5.50;99.90;;;;;;5052198;28;20405;-79
2022/12/05 10:47:44;;;;;;;10.27;6.27;;;5.40;99.90;;;;;;5055740;28;20405;-78
2022/12/05 10:50:31;;;;;;;8.20;6.70;;;5.30;99.90;;;;;;5055685;28;20795;-78
2022/12/05 10:52:59;;;;;;;7.77;6.03;;;5.40;99.90;;;;;;5056458;28;20997;-78
2022/12/05 10:55:33;;;;;;;8.13;6.70;;;5.40;99.90;;;;;;5055279;28;20488;-78
2022/12/05 10:58:22;;;;;;;7.13;5.27;;;5.40;99.90;;;;;;5058749;28;20451;-79
2022/12/05 11:00:52;;;;;;;14.30;8.40;;;5.30;99.90;;;;;;5057232;28;20412;-75
2022/12/05 11:03:36;;;;;;;10.57;7.17;;;5.40;99.90;;;;;;5056109;28;20429;-74
2022/12/05 11:06:14;;;;;;;9.53;6.80;;;5.50;99.90;;;;;;5054936;28;20413;-76
2022/12/05 11:08:40;;;;;;;8.17;6.53;;;5.60;99.90;;;;;;5055850;28;20619;-76
2022/12/05 11:11:27;;;;;;;10.70;6.30;;;5.70;99.90;;;;;;5055456;28;20494;-76
2022/12/05 11:13:53;;;;;;;9.33;6.10;;;5.70;99.90;;;;;;5054909;28;20659;-76
2022/12/05 11:16:30;;;;;;;9.33;6.37;;;5.80;99.90;;;;;;5054760;28;20457;-77
2022/12/05 11:18:55;;;;;;;13.13;7.47;;;5.90;99.90;;;;;;5056676;28;20401;-76
2022/12/05 11:21:21;;;;;;;7.57;6.60;;;5.80;99.90;;;;;;5055385;28;20401;-76
2022/12/05 11:23:48;;;;;;;7.30;6.60;;;5.90;99.90;;;;;;5055015;28;20271;-76
2022/12/05 11:26:34;;;;;;;10.17;6.70;;;5.90;99.90;;;;;;5055821;28;20171;-78
2022/12/05 11:29:00;;;;;;;8.53;5.93;;;5.90;99.90;;;;;;5056202;28;20420;-77
2022/12/05 11:31:28;;;;;;;8.90;6.50;;;5.90;99.90;;;;;;5055806;28;20898;-78
2022/12/05 11:34:21;;;;;;;6.03;5.43;;;5.90;99.90;;;;;;5054761;28;20199;-77
2022/12/05 11:36:53;;;;;;;10.63;6.60;;;5.80;99.90;;;;;;5053601;28;20429;-78
2022/12/05 11:39:18;;;;;;;9.63;6.57;;;5.60;99.90;;;;;;5055852;28;20389;-77
2022/12/05 11:42:15;;;;;;;12.13;8.90;;;5.50;99.90;;;;;;5054421;28;20399;-77
2022/12/05 11:45:28;;;;;;;8.97;6.57;;;5.30;99.90;;;;;;5055578;28;20201;-78
2022/12/05 11:48:26;;;;;;;11.87;7.37;;;5.20;99.90;;;;;;5055057;28;20413;-80
2022/12/05 11:51:23;;;;;;;10.90;7.50;;;5.30;99.90;;;;;;5057235;28;20891;-79
2022/12/05 11:53:58;;;;;;;9.43;6.93;;;5.30;99.90;;;;;;5055314;28;20444;-78
2022/12/05 11:56:47;;;;;;;11.87;7.73;;;5.10;99.90;;;;;;5055396;28;20935;-77
2022/12/05 11:59:44;;;;;;;11.57;8.80;;;5.00;99.90;;;;;;5055543;28;20914;-77
2022/12/05 12:02:30;;;;;;;11.40;7.97;;;5.00;99.90;;;;;;5054865;28;20390;-78
2022/12/05 12:05:12;;;;;;;9.90;6.90;;;5.10;99.90;;;;;;5055072;28;20406;-78
2022/12/05 12:08:02;;;;;;;11.57;7.03;;;5.10;99.90;;;;;;5053748;28;20398;-77
2022/12/05 12:10:35;;;;;;;12.10;7.00;;;5.20;99.90;;;;;;5055019;28;20876;-78
2022/12/05 12:13:03;;;;;;;8.60;7.63;;;5.20;99.90;;;;;;5053318;28;20433;-77
2022/12/05 12:15:37;;;;;;;11.40;8.57;;;5.30;99.90;;;;;;5054708;28;20453;-77
2022/12/05 12:18:41;;;;;;;9.87;7.00;;;5.30;99.90;;;;;;5055042;28;20402;-78
2022/12/05 12:21:32;;;;;;;12.47;7.37;;;5.30;99.90;;;;;;5053498;28;20401;-77
2022/12/05 12:24:19;;;;;;;12.63;8.57;;;5.20;99.90;;;;;;5054605;28;20428;-78
2022/12/05 12:27:33;;;;;;;11.87;7.97;;;5.30;99.90;;;;;;5054996;28;20465;-78
2022/12/05 12:30:20;;;;;;;15.07;10.10;;;5.30;99.90;;;;;;5052329;28;20516;-78
2022/12/05 12:33:04;;;;;;;14.93;8.60;;;5.40;99.90;;;;;;5052266;28;20437;-77
2022/12/05 12:35:34;;;;;;;12.63;8.70;;;5.40;99.90;;;;;;5047314;28;20453;-77
2022/12/05 12:38:00;;;;;;;15.17;9.30;;;5.60;99.90;;;;;;5054416;28;20463;-77
2022/12/05 12:40:41;;;;;;;15.40;9.53;;;5.60;99.90;;;;;;5054244;28;20426;-77
2022/12/05 12:43:31;;;;;;;12.63;8.83;;;5.70;99.90;;;;;;5053385;28;20590;-77
2022/12/05 12:46:29;;;;;;;16.07;9.97;;;5.80;99.90;;;;;;5051994;28;20886;-78
2022/12/05 12:49:32;;;;;;;15.00;10.50;;;6.00;99.90;;;;;;5053535;28;20819;-77
2022/12/05 12:52:03;;;;;;;14.93;9.47;;;6.00;99.90;;;;;;5053307;28;20834;-77
2022/12/05 12:54:55;;;;;;;12.23;8.00;;;6.10;99.90;;;;;;5053198;28;20453;-77
2022/12/05 12:57:38;;;;;;;15.63;8.50;;;6.00;99.90;;;;;;5051048;28;20409;-77
2022/12/05 13:00:17;;;;;;;11.23;7.87;;;6.10;99.90;;;;;;5053320;28;20887;-78
2022/12/05 13:03:05;;;;;;;13.20;7.77;;;6.00;99.90;;;;;;5053312;28;20422;-77
2022/12/05 13:05:37;;;;;;;14.00;8.73;;;6.00;99.90;;;;;;5052014;28;20482;-77
2022/12/05 13:08:21;;;;;;;11.20;8.30;;;6.00;99.90;;;;;;5052643;28;20455;-77
2022/12/05 13:10:48;;;;;;;8.57;6.77;;;5.90;99.90;;;;;;5052312;28;20771;-77
2022/12/05 13:13:48;;;;;;;14.67;8.83;;;5.70;99.90;;;;;;5052506;28;20436;-76
2022/12/05 13:16:32;;;;;;;13.23;9.03;;;5.70;99.90;;;;;;5052978;28;20453;-77
2022/12/05 13:18:59;;;;;;;10.40;7.30;;;5.80;99.90;;;;;;5054181;28;20492;-78
2022/12/05 13:21:27;;;;;;;14.00;6.83;;;5.70;99.90;;;;;;5053363;28;20402;-77